sensor_id;sensor_type;location;lat;lon;timestamp;pressure;altitude;pressure_sealevel;temperature
67599;BMP280;62026;39.230;9.122;2023-05-07T00:00:52;100973.88;;;19.62
67599;BMP280;62026;39.230;9.122;2023-05-07T00:03:19;100976.53;;;19.57
67599;BMP280;62026;39.230;9.122;2023-05-07T00:05:45;100977.91;;;19.54
67599;BMP280;62026;39.230;9.122;2023-05-07T00:08:12;100976.28;;;19.53
67599;BMP280;62026;39.230;9.122;2023-05-07T00:10:38;100971.72;;;19.54
67599;BMP280;62026;39.230;9.122;2023-05-07T00:13:04;100973.91;;;19.52
67599;BMP280;62026;39.230;9.122;2023-05-07T00:15:30;100958.88;;;19.51
67599;BMP280;62026;39.230;9.122;2023-05-07T00:17:56;100959.94;;;19.50
67599;BMP280;62026;39.230;9.122;2023-05-07T00:20:24;100958.88;;;19.51
67599;BMP280;62026;39.230;9.122;2023-05-07T00:22:50;100958.88;;;19.51
67599;BMP280;62026;39.230;9.122;2023-05-07T00:25:16;100957.81;;;19.52
67599;BMP280;62026;39.230;9.122;2023-05-07T00:27:42;100953.25;;;19.47
67599;BMP280;62026;39.230;9.122;2023-05-07T00:30:09;100961.53;;;19.46
67599;BMP280;62026;39.230;9.122;2023-05-07T00:32:35;100951.09;;;19.49
67599;BMP280;62026;39.230;9.122;2023-05-07T00:35:03;100943.06;;;19.49
67599;BMP280;62026;39.230;9.122;2023-05-07T00:37:29;100949.00;;;19.51
67599;BMP280;62026;39.230;9.122;2023-05-07T00:39:56;100938.50;;;19.50
67599;BMP280;62026;39.230;9.122;2023-05-07T00:42:22;100940.66;;;19.43
67599;BMP280;62026;39.230;9.122;2023-05-07T00:44:48;100938.50;;;19.45
67599;BMP280;62026;39.230;9.122;2023-05-07T00:47:14;100937.97;;;19.43
67599;BMP280;62026;39.230;9.122;2023-05-07T00:49:44;100933.69;;;19.42
67599;BMP280;62026;39.230;9.122;2023-05-07T00:52:17;100943.84;;;19.40
67599;BMP280;62026;39.230;9.122;2023-05-07T00:54:43;100937.97;;;19.43
67599;BMP280;62026;39.230;9.122;2023-05-07T00:57:11;100942.78;;;19.41
67599;BMP280;62026;39.230;9.122;2023-05-07T00:59:37;100938.47;;;19.40
67599;BMP280;62026;39.230;9.122;2023-05-07T01:02:04;100941.16;;;19.40
67599;BMP280;62026;39.230;9.122;2023-05-07T01:04:30;100948.94;;;19.36
67599;BMP280;62026;39.230;9.122;2023-05-07T01:06:58;100944.38;;;19.36
67599;BMP280;62026;39.230;9.122;2023-05-07T01:09:25;100925.66;;;19.36
67599;BMP280;62026;39.230;9.122;2023-05-07T01:11:53;100917.03;;;19.34
67599;BMP280;62026;39.230;9.122;2023-05-07T01:14:19;100916.53;;;19.32
67599;BMP280;62026;39.230;9.122;2023-05-07T01:16:48;100918.66;;;19.30
67599;BMP280;62026;39.230;9.122;2023-05-07T01:19:18;100913.31;;;19.30
67599;BMP280;62026;39.230;9.122;2023-05-07T01:21:49;100913.59;;;19.29
67599;BMP280;62026;39.230;9.122;2023-05-07T01:24:18;100918.16;;;19.28
67599;BMP280;62026;39.230;9.122;2023-05-07T01:26:44;100922.16;;;19.36
67599;BMP280;62026;39.230;9.122;2023-05-07T01:29:13;100914.91;;;19.31
67599;BMP280;62026;39.230;9.122;2023-05-07T01:31:41;100910.63;;;19.30
67599;BMP280;62026;39.230;9.122;2023-05-07T01:34:09;100906.06;;;19.26
67599;BMP280;62026;39.230;9.122;2023-05-07T01:36:39;100908.19;;;19.19
67599;BMP280;62026;39.230;9.122;2023-05-07T01:39:06;100903.09;;;19.17
67599;BMP280;62026;39.230;9.122;2023-05-07T01:41:35;100905.25;;;19.15
67599;BMP280;62026;39.230;9.122;2023-05-07T01:44:02;100905.75;;;19.12
67599;BMP280;62026;39.230;9.122;2023-05-07T01:46:31;100908.13;;;19.04
67599;BMP280;62026;39.230;9.122;2023-05-07T01:48:57;100917.00;;;19.09
67599;BMP280;62026;39.230;9.122;2023-05-07T01:51:23;100911.94;;;19.13
67599;BMP280;62026;39.230;9.122;2023-05-07T01:53:49;100915.66;;;19.12
67599;BMP280;62026;39.230;9.122;2023-05-07T01:56:19;100920.25;;;19.16
67599;BMP280;62026;39.230;9.122;2023-05-07T01:58:46;100918.59;;;19.10
67599;BMP280;62026;39.230;9.122;2023-05-07T02:01:13;100919.66;;;19.09
67599;BMP280;62026;39.230;9.122;2023-05-07T02:03:40;100914.06;;;19.11
67599;BMP280;62026;39.230;9.122;2023-05-07T02:06:13;100911.13;;;19.07
67599;BMP280;62026;39.230;9.122;2023-05-07T02:08:39;100915.94;;;19.05
67599;BMP280;62026;39.230;9.122;2023-05-07T02:11:06;100909.47;;;19.01
67599;BMP280;62026;39.230;9.122;2023-05-07T02:13:34;100908.38;;;18.97
67599;BMP280;62026;39.230;9.122;2023-05-07T02:16:03;100916.41;;;18.92
67599;BMP280;62026;39.230;9.122;2023-05-07T02:18:30;100921.22;;;18.95
67599;BMP280;62026;39.230;9.122;2023-05-07T02:20:56;100918.03;;;18.93
67599;BMP280;62026;39.230;9.122;2023-05-07T02:23:22;100920.97;;;18.91
67599;BMP280;62026;39.230;9.122;2023-05-07T02:25:48;100925.50;;;18.91
67599;BMP280;62026;39.230;9.122;2023-05-07T02:28:14;100923.88;;;18.90
67599;BMP280;62026;39.230;9.122;2023-05-07T02:31:10;100925.72;;;18.89
67599;BMP280;62026;39.230;9.122;2023-05-07T02:33:36;100926.00;;;18.88
67599;BMP280;62026;39.230;9.122;2023-05-07T02:36:11;100919.06;;;18.87
67599;BMP280;62026;39.230;9.122;2023-05-07T02:38:47;100920.13;;;18.86
67599;BMP280;62026;39.230;9.122;2023-05-07T02:41:13;100927.34;;;18.85
67599;BMP280;62026;39.230;9.122;2023-05-07T02:43:39;100923.84;;;18.85
67599;BMP280;62026;39.230;9.122;2023-05-07T02:46:08;100924.94;;;18.84
67599;BMP280;62026;39.230;9.122;2023-05-07T02:48:38;100921.19;;;18.85
67599;BMP280;62026;39.230;9.122;2023-05-07T02:51:04;100924.94;;;18.84
67599;BMP280;62026;39.230;9.122;2023-05-07T02:53:32;100937.22;;;18.85
67599;BMP280;62026;39.230;9.122;2023-05-07T02:56:00;100936.72;;;18.88
67599;BMP280;62026;39.230;9.122;2023-05-07T02:58:26;100938.84;;;18.86
67599;BMP280;62026;39.230;9.122;2023-05-07T03:00:53;100935.66;;;18.84
67599;BMP280;62026;39.230;9.122;2023-05-07T03:03:31;100934.28;;;18.86
67599;BMP280;62026;39.230;9.122;2023-05-07T03:05:57;100934.56;;;18.85
67599;BMP280;62026;39.230;9.122;2023-05-07T03:08:24;100940.44;;;18.87
67599;BMP280;62026;39.230;9.122;2023-05-07T03:10:50;100934.03;;;18.83
67599;BMP280;62026;39.230;9.122;2023-05-07T03:13:16;100939.91;;;18.80
67599;BMP280;62026;39.230;9.122;2023-05-07T03:15:42;100944.44;;;18.79
67599;BMP280;62026;39.230;9.122;2023-05-07T03:18:09;100939.88;;;18.75
67599;BMP280;62026;39.230;9.122;2023-05-07T03:20:35;100929.41;;;18.73
67599;BMP280;62026;39.230;9.122;2023-05-07T03:23:02;100924.31;;;18.72
67599;BMP280;62026;39.230;9.122;2023-05-07T03:25:28;100919.50;;;18.69
67599;BMP280;62026;39.230;9.122;2023-05-07T03:27:56;100930.75;;;18.71
67599;BMP280;62026;39.230;9.122;2023-05-07T03:30:26;100932.34;;;18.72
67599;BMP280;62026;39.230;9.122;2023-05-07T03:32:52;100928.06;;;18.66
67599;BMP280;62026;39.230;9.122;2023-05-07T03:35:18;100930.16;;;18.63
67599;BMP280;62026;39.230;9.122;2023-05-07T03:37:45;100934.97;;;18.67
67599;BMP280;62026;39.230;9.122;2023-05-07T03:40:12;100936.88;;;18.66
67599;BMP280;62026;39.230;9.122;2023-05-07T03:42:46;100951.03;;;18.67
67599;BMP280;62026;39.230;9.122;2023-05-07T03:45:13;100950.25;;;18.66
67599;BMP280;62026;39.230;9.122;2023-05-07T03:47:44;100960.69;;;18.68
67599;BMP280;62026;39.230;9.122;2023-05-07T03:50:12;100960.94;;;18.66
67599;BMP280;62026;39.230;9.122;2023-05-07T03:52:38;100963.88;;;18.64
67599;BMP280;62026;39.230;9.122;2023-05-07T03:55:07;100960.13;;;18.66
67599;BMP280;62026;39.230;9.122;2023-05-07T03:57:34;100974.88;;;18.68
67599;BMP280;62026;39.230;9.122;2023-05-07T04:00:01;100978.56;;;18.62
67599;BMP280;62026;39.230;9.122;2023-05-07T04:02:31;100987.13;;;18.64
67599;BMP280;62026;39.230;9.122;2023-05-07T04:04:58;100983.66;;;18.63
67599;BMP280;62026;39.230;9.122;2023-05-07T04:07:24;100971.28;;;18.57
67599;BMP280;62026;39.230;9.122;2023-05-07T04:09:50;100979.59;;;18.56
67599;BMP280;62026;39.230;9.122;2023-05-07T04:12:17;100979.06;;;18.54
67599;BMP280;62026;39.230;9.122;2023-05-07T04:14:43;100976.63;;;18.52
67599;BMP280;62026;39.230;9.122;2023-05-07T04:17:09;100976.31;;;18.49
67599;BMP280;62026;39.230;9.122;2023-05-07T04:19:37;100971.78;;;18.49
67599;BMP280;62026;39.230;9.122;2023-05-07T04:22:03;100969.38;;;18.48
67599;BMP280;62026;39.230;9.122;2023-05-07T04:24:33;100976.06;;;18.45
67599;BMP280;62026;39.230;9.122;2023-05-07T04:27:00;100975.25;;;18.45
67599;BMP280;62026;39.230;9.122;2023-05-07T04:29:27;100990.81;;;18.53
67599;BMP280;62026;39.230;9.122;2023-05-07T04:31:54;101003.38;;;18.52
67599;BMP280;62026;39.230;9.122;2023-05-07T04:34:22;101003.38;;;18.57
67599;BMP280;62026;39.230;9.122;2023-05-07T04:36:48;101008.72;;;18.52
67599;BMP280;62026;39.230;9.122;2023-05-07T04:39:15;101009.78;;;18.51
67599;BMP280;62026;39.230;9.122;2023-05-07T04:41:43;101004.44;;;18.51
67599;BMP280;62026;39.230;9.122;2023-05-07T04:44:09;100997.25;;;18.52
67599;BMP280;62026;39.230;9.122;2023-05-07T04:46:37;100996.97;;;18.53
67599;BMP280;62026;39.230;9.122;2023-05-07T04:49:02;101002.31;;;18.58
67599;BMP280;62026;39.230;9.122;2023-05-07T04:51:29;101007.16;;;18.61
67599;BMP280;62026;39.230;9.122;2023-05-07T04:53:55;101001.81;;;18.61
67599;BMP280;62026;39.230;9.122;2023-05-07T04:56:21;101005.84;;;18.64
67599;BMP280;62026;39.230;9.122;2023-05-07T04:58:47;101014.13;;;18.62
67599;BMP280;62026;39.230;9.122;2023-05-07T05:01:15;101013.63;;;18.66
67599;BMP280;62026;39.230;9.122;2023-05-07T05:03:41;101014.72;;;18.70
67599;BMP280;62026;39.230;9.122;2023-05-07T05:06:07;101016.84;;;18.68
67599;BMP280;62026;39.230;9.122;2023-05-07T05:08:34;101011.00;;;18.71
67599;BMP280;62026;39.230;9.122;2023-05-07T05:11:02;101011.00;;;18.76
67599;BMP280;62026;39.230;9.122;2023-05-07T05:13:28;101015.03;;;18.78
67599;BMP280;62026;39.230;9.122;2023-05-07T05:15:55;101014.81;;;18.85
67599;BMP280;62026;39.230;9.122;2023-05-07T05:18:22;101022.31;;;18.88
67599;BMP280;62026;39.230;9.122;2023-05-07T05:20:48;101025.84;;;18.93
67599;BMP280;62026;39.230;9.122;2023-05-07T05:23:15;101022.88;;;18.95
67599;BMP280;62026;39.230;9.122;2023-05-07T05:25:41;101030.94;;;19.00
67599;BMP280;62026;39.230;9.122;2023-05-07T05:28:10;101026.16;;;19.02
67599;BMP280;62026;39.230;9.122;2023-05-07T05:30:36;101029.94;;;19.11
67599;BMP280;62026;39.230;9.122;2023-05-07T05:33:02;101033.72;;;19.15
67599;BMP280;62026;39.230;9.122;2023-05-07T05:35:29;101035.03;;;19.13
67599;BMP280;62026;39.230;9.122;2023-05-07T05:37:56;101039.34;;;19.19
67599;BMP280;62026;39.230;9.122;2023-05-07T05:40:23;101042.31;;;19.22
67599;BMP280;62026;39.230;9.122;2023-05-07T05:42:49;101040.47;;;19.33
67599;BMP280;62026;39.230;9.122;2023-05-07T05:45:16;101037.28;;;19.36
67599;BMP280;62026;39.230;9.122;2023-05-07T05:47:44;101038.66;;;19.39
67599;BMP280;62026;39.230;9.122;2023-05-07T05:50:10;101039.13;;;19.25
67599;BMP280;62026;39.230;9.122;2023-05-07T05:52:37;101044.22;;;19.32
67599;BMP280;62026;39.230;9.122;2023-05-07T05:55:03;101037.59;;;19.45
67599;BMP280;62026;39.230;9.122;2023-05-07T05:57:30;101043.19;;;19.48
67599;BMP280;62026;39.230;9.122;2023-05-07T05:59:56;101035.44;;;19.47
67599;BMP280;62026;39.230;9.122;2023-05-07T06:02:23;101037.88;;;19.53
67599;BMP280;62026;39.230;9.122;2023-05-07T06:04:50;101038.72;;;19.59
67599;BMP280;62026;39.230;9.122;2023-05-07T06:07:18;101043.06;;;19.90
67599;BMP280;62026;39.230;9.122;2023-05-07T06:09:44;101043.06;;;19.90
67599;BMP280;62026;39.230;9.122;2023-05-07T06:12:12;101040.94;;;20.07
67599;BMP280;62026;39.230;9.122;2023-05-07T06:14:38;101050.31;;;20.15
67599;BMP280;62026;39.230;9.122;2023-05-07T06:17:04;101044.44;;;20.23
67599;BMP280;62026;39.230;9.122;2023-05-07T06:19:31;101047.38;;;20.42
67599;BMP280;62026;39.230;9.122;2023-05-07T06:21:58;101048.97;;;20.33
67599;BMP280;62026;39.230;9.122;2023-05-07T06:24:28;101040.38;;;20.56
67599;BMP280;62026;39.230;9.122;2023-05-07T06:26:54;101044.13;;;20.65
67599;BMP280;62026;39.230;9.122;2023-05-07T06:29:21;101040.63;;;20.75
67599;BMP280;62026;39.230;9.122;2023-05-07T06:31:47;101042.50;;;20.84
67599;BMP280;62026;39.230;9.122;2023-05-07T06:34:13;101045.06;;;21.10
67599;BMP280;62026;39.230;9.122;2023-05-07T06:36:41;101040.25;;;21.12
67599;BMP280;62026;39.230;9.122;2023-05-07T06:39:15;101044.75;;;21.27
67599;BMP280;62026;39.230;9.122;2023-05-07T06:41:42;101040.16;;;21.32
67599;BMP280;62026;39.230;9.122;2023-05-07T06:44:17;101037.56;;;21.02
67599;BMP280;62026;39.230;9.122;2023-05-07T06:46:47;101039.66;;;21.25
67599;BMP280;62026;39.230;9.122;2023-05-07T06:49:13;101035.28;;;21.39
67599;BMP280;62026;39.230;9.122;2023-05-07T06:51:40;101038.66;;;21.65
67599;BMP280;62026;39.230;9.122;2023-05-07T06:54:06;101039.03;;;21.82
67599;BMP280;62026;39.230;9.122;2023-05-07T06:56:34;101043.88;;;21.85
67599;BMP280;62026;39.230;9.122;2023-05-07T06:59:02;101047.13;;;22.16
67599;BMP280;62026;39.230;9.122;2023-05-07T07:01:33;101048.25;;;22.10
67599;BMP280;62026;39.230;9.122;2023-05-07T07:04:01;101052.13;;;21.94
67599;BMP280;62026;39.230;9.122;2023-05-07T07:06:28;101042.34;;;22.08
67599;BMP280;62026;39.230;9.122;2023-05-07T07:08:58;101048.78;;;22.12
67599;BMP280;62026;39.230;9.122;2023-05-07T07:11:25;101054.09;;;22.17
67599;BMP280;62026;39.230;9.122;2023-05-07T07:13:51;101050.34;;;22.18
67599;BMP280;62026;39.230;9.122;2023-05-07T07:16:17;101050.38;;;22.13
67599;BMP280;62026;39.230;9.122;2023-05-07T07:18:44;101052.97;;;22.23
67599;BMP280;62026;39.230;9.122;2023-05-07T07:21:10;101048.91;;;21.97
67599;BMP280;62026;39.230;9.122;2023-05-07T07:23:36;101047.78;;;21.98
67599;BMP280;62026;39.230;9.122;2023-05-07T07:26:02;101049.09;;;22.06
67599;BMP280;62026;39.230;9.122;2023-05-07T07:28:28;101043.88;;;22.19
67599;BMP280;62026;39.230;9.122;2023-05-07T07:30:54;101052.50;;;22.45
67599;BMP280;62026;39.230;9.122;2023-05-07T07:33:21;101044.88;;;22.52
67599;BMP280;62026;39.230;9.122;2023-05-07T07:35:47;101042.69;;;22.59
67599;BMP280;62026;39.230;9.122;2023-05-07T07:38:13;101043.38;;;22.70
67599;BMP280;62026;39.230;9.122;2023-05-07T07:40:40;101031.25;;;22.91
67599;BMP280;62026;39.230;9.122;2023-05-07T07:43:07;101029.13;;;23.12
67599;BMP280;62026;39.230;9.122;2023-05-07T07:45:34;101035.56;;;22.92
67599;BMP280;62026;39.230;9.122;2023-05-07T07:48:01;101028.22;;;22.98
67599;BMP280;62026;39.230;9.122;2023-05-07T07:50:27;101023.06;;;23.20
67599;BMP280;62026;39.230;9.122;2023-05-07T07:52:53;101027.53;;;23.11
67599;BMP280;62026;39.230;9.122;2023-05-07T07:55:22;101019.47;;;22.39
67599;BMP280;62026;39.230;9.122;2023-05-07T07:57:50;101022.72;;;23.08
67599;BMP280;62026;39.230;9.122;2023-05-07T08:00:17;101009.50;;;22.88
67599;BMP280;62026;39.230;9.122;2023-05-07T08:02:43;101009.75;;;23.10
67599;BMP280;62026;39.230;9.122;2023-05-07T08:05:12;101006.41;;;23.37
67599;BMP280;62026;39.230;9.122;2023-05-07T08:07:38;100997.88;;;22.92
67599;BMP280;62026;39.230;9.122;2023-05-07T08:10:05;100988.69;;;22.93
67599;BMP280;62026;39.230;9.122;2023-05-07T08:12:31;101001.16;;;23.08
67599;BMP280;62026;39.230;9.122;2023-05-07T08:14:58;101009.81;;;23.24
67599;BMP280;62026;39.230;9.122;2023-05-07T08:17:24;101006.47;;;23.50
67599;BMP280;62026;39.230;9.122;2023-05-07T08:19:51;101010.72;;;23.38
67599;BMP280;62026;39.230;9.122;2023-05-07T08:22:17;101002.50;;;23.80
67599;BMP280;62026;39.230;9.122;2023-05-07T08:24:44;101012.88;;;23.54
67599;BMP280;62026;39.230;9.122;2023-05-07T08:27:11;101004.28;;;23.71
67599;BMP280;62026;39.230;9.122;2023-05-07T08:29:40;101001.88;;;24.02
67599;BMP280;62026;39.230;9.122;2023-05-07T08:32:06;101001.44;;;23.63
67599;BMP280;62026;39.230;9.122;2023-05-07T08:34:32;100989.50;;;23.50
67599;BMP280;62026;39.230;9.122;2023-05-07T08:37:01;100982.16;;;23.88
67599;BMP280;62026;39.230;9.122;2023-05-07T08:39:28;100984.03;;;23.55
67599;BMP280;62026;39.230;9.122;2023-05-07T08:41:55;100967.06;;;24.01
67599;BMP280;62026;39.230;9.122;2023-05-07T08:44:26;100968.00;;;24.23
67599;BMP280;62026;39.230;9.122;2023-05-07T08:46:56;100969.13;;;23.76
67599;BMP280;62026;39.230;9.122;2023-05-07T08:49:24;100955.72;;;24.04
67599;BMP280;62026;39.230;9.122;2023-05-07T08:51:51;100946.19;;;23.92
67599;BMP280;62026;39.230;9.122;2023-05-07T08:54:20;100944.59;;;23.91
67599;BMP280;62026;39.230;9.122;2023-05-07T08:56:48;100951.34;;;23.75
67599;BMP280;62026;39.230;9.122;2023-05-07T08:59:14;100939.41;;;23.95
67599;BMP280;62026;39.230;9.122;2023-05-07T09:01:42;100945.53;;;24.14
67599;BMP280;62026;39.230;9.122;2023-05-07T09:04:08;100938.63;;;24.22
67599;BMP280;62026;39.230;9.122;2023-05-07T09:06:35;100936.31;;;24.29
67599;BMP280;62026;39.230;9.122;2023-05-07T09:09:04;100926.22;;;24.21
67599;BMP280;62026;39.230;9.122;2023-05-07T09:11:32;100921.84;;;24.25
67599;BMP280;62026;39.230;9.122;2023-05-07T09:14:00;100924.78;;;24.64
67599;BMP280;62026;39.230;9.122;2023-05-07T09:16:30;100931.97;;;24.69
67599;BMP280;62026;39.230;9.122;2023-05-07T09:18:59;100938.09;;;24.47
67599;BMP280;62026;39.230;9.122;2023-05-07T09:21:26;100947.41;;;24.14
67599;BMP280;62026;39.230;9.122;2023-05-07T09:23:55;100945.13;;;24.48
67599;BMP280;62026;39.230;9.122;2023-05-07T09:26:28;100946.72;;;24.35
67599;BMP280;62026;39.230;9.122;2023-05-07T09:28:54;100948.00;;;24.38
67599;BMP280;62026;39.230;9.122;2023-05-07T09:31:20;100957.56;;;24.71
67599;BMP280;62026;39.230;9.122;2023-05-07T09:33:49;100950.22;;;24.50
67599;BMP280;62026;39.230;9.122;2023-05-07T09:36:16;100960.03;;;24.32
67599;BMP280;62026;39.230;9.122;2023-05-07T09:38:42;100958.63;;;24.34
67599;BMP280;62026;39.230;9.122;2023-05-07T09:53:09;100948.81;;;25.24
67599;BMP280;62026;39.230;9.122;2023-05-07T09:55:37;100938.84;;;25.11
67599;BMP280;62026;39.230;9.122;2023-05-07T09:58:06;100936.34;;;24.79
67599;BMP280;62026;39.230;9.122;2023-05-07T10:00:33;100925.25;;;25.16
67599;BMP280;62026;39.230;9.122;2023-05-07T10:03:09;100924.50;;;25.02
67599;BMP280;62026;39.230;9.122;2023-05-07T10:05:48;100923.91;;;24.91
67599;BMP280;62026;39.230;9.122;2023-05-07T10:08:15;100927.66;;;25.04
67599;BMP280;62026;39.230;9.122;2023-05-07T10:10:45;100925.81;;;24.91
67599;BMP280;62026;39.230;9.122;2023-05-07T10:13:19;100937.88;;;24.57
67599;BMP280;62026;39.230;9.122;2023-05-07T10:15:47;100938.09;;;24.97
67599;BMP280;62026;39.230;9.122;2023-05-07T10:18:16;100954.06;;;25.07
67599;BMP280;62026;39.230;9.122;2023-05-07T10:20:47;100976.16;;;24.87
67599;BMP280;62026;39.230;9.122;2023-05-07T10:23:21;100977.13;;;24.91
67599;BMP280;62026;39.230;9.122;2023-05-07T10:25:49;100986.41;;;25.12
67599;BMP280;62026;39.230;9.122;2023-05-07T10:28:24;100986.97;;;24.87
67599;BMP280;62026;39.230;9.122;2023-05-07T10:31:18;100995.66;;;24.84
67599;BMP280;62026;39.230;9.122;2023-05-07T10:33:53;101002.59;;;25.12
67599;BMP280;62026;39.230;9.122;2023-05-07T10:36:23;101017.88;;;24.94
67599;BMP280;62026;39.230;9.122;2023-05-07T10:38:52;101010.19;;;24.88
67599;BMP280;62026;39.230;9.122;2023-05-07T10:41:19;101011.75;;;24.89
67599;BMP280;62026;39.230;9.122;2023-05-07T10:43:47;101004.56;;;24.16
67599;BMP280;62026;39.230;9.122;2023-05-07T10:46:22;101007.09;;;24.53
67599;BMP280;62026;39.230;9.122;2023-05-07T10:52:18;100998.53;;;25.01
67599;BMP280;62026;39.230;9.122;2023-05-07T10:55:20;100995.31;;;25.12
67599;BMP280;62026;39.230;9.122;2023-05-07T10:58:27;101001.88;;;24.84
67599;BMP280;62026;39.230;9.122;2023-05-07T11:01:09;101008.97;;;24.94
67599;BMP280;62026;39.230;9.122;2023-05-07T11:04:15;101019.38;;;24.46
67599;BMP280;62026;39.230;9.122;2023-05-07T11:15:12;101018.22;;;23.60
67599;BMP280;62026;39.230;9.122;2023-05-07T11:17:59;101008.47;;;23.64
67599;BMP280;62026;39.230;9.122;2023-05-07T11:20:49;101020.38;;;23.58
67599;BMP280;62026;39.230;9.122;2023-05-07T11:26:17;101012.81;;;23.60
67599;BMP280;62026;39.230;9.122;2023-05-07T11:28:44;101031.38;;;23.42
67599;BMP280;62026;39.230;9.122;2023-05-07T11:31:11;101010.16;;;23.41
67599;BMP280;62026;39.230;9.122;2023-05-07T11:33:39;100996.66;;;23.41
67599;BMP280;62026;39.230;9.122;2023-05-07T11:36:10;101021.28;;;23.34
67599;BMP280;62026;39.230;9.122;2023-05-07T11:38:42;101008.88;;;23.14
67599;BMP280;62026;39.230;9.122;2023-05-07T11:41:08;101006.59;;;23.27
67599;BMP280;62026;39.230;9.122;2023-05-07T11:43:34;101000.03;;;23.09
67599;BMP280;62026;39.230;9.122;2023-05-07T11:46:11;101005.81;;;23.21
67599;BMP280;62026;39.230;9.122;2023-05-07T11:48:38;101010.06;;;23.08
67599;BMP280;62026;39.230;9.122;2023-05-07T11:51:06;101015.88;;;22.97
67599;BMP280;62026;39.230;9.122;2023-05-07T11:53:42;101008.72;;;23.06
67599;BMP280;62026;39.230;9.122;2023-05-07T11:56:14;101000.50;;;22.97
67599;BMP280;62026;39.230;9.122;2023-05-07T11:58:42;101000.50;;;22.97
67599;BMP280;62026;39.230;9.122;2023-05-07T12:01:10;101013.00;;;22.88
67599;BMP280;62026;39.230;9.122;2023-05-07T12:03:40;101003.50;;;22.96
67599;BMP280;62026;39.230;9.122;2023-05-07T12:06:09;101010.63;;;23.05
67599;BMP280;62026;39.230;9.122;2023-05-07T12:08:40;100993.81;;;22.71
67599;BMP280;62026;39.230;9.122;2023-05-07T12:11:15;100995.19;;;22.92
67599;BMP280;62026;39.230;9.122;2023-05-07T12:13:43;100978.09;;;23.02
67599;BMP280;62026;39.230;9.122;2023-05-07T12:16:10;100979.91;;;23.06
67599;BMP280;62026;39.230;9.122;2023-05-07T12:18:37;100981.91;;;23.20
67599;BMP280;62026;39.230;9.122;2023-05-07T12:21:05;100989.28;;;23.28
67599;BMP280;62026;39.230;9.122;2023-05-07T12:23:34;100992.13;;;22.99
67599;BMP280;62026;39.230;9.122;2023-05-07T12:26:00;100981.59;;;23.02
67599;BMP280;62026;39.230;9.122;2023-05-07T12:28:28;100999.19;;;23.13
67599;BMP280;62026;39.230;9.122;2023-05-07T12:30:54;100986.94;;;22.84
67599;BMP280;62026;39.230;9.122;2023-05-07T12:33:26;100987.69;;;23.08
67599;BMP280;62026;39.230;9.122;2023-05-07T12:35:55;100987.97;;;23.06
67599;BMP280;62026;39.230;9.122;2023-05-07T12:38:22;100993.97;;;23.03
67599;BMP280;62026;39.230;9.122;2023-05-07T12:40:53;100987.94;;;23.11
67599;BMP280;62026;39.230;9.122;2023-05-07T12:43:28;100998.13;;;22.72
67599;BMP280;62026;39.230;9.122;2023-05-07T12:46:04;100987.88;;;22.74
67599;BMP280;62026;39.230;9.122;2023-05-07T12:48:31;100981.88;;;22.58
67599;BMP280;62026;39.230;9.122;2023-05-07T12:51:00;100973.72;;;22.63
67599;BMP280;62026;39.230;9.122;2023-05-07T12:53:28;100982.19;;;22.75
67599;BMP280;62026;39.230;9.122;2023-05-07T12:55:57;100971.91;;;22.59
67599;BMP280;62026;39.230;9.122;2023-05-07T12:58:34;100966.47;;;22.64
67599;BMP280;62026;39.230;9.122;2023-05-07T13:01:05;100966.63;;;22.72
67599;BMP280;62026;39.230;9.122;2023-05-07T13:03:35;100958.28;;;22.74
67599;BMP280;62026;39.230;9.122;2023-05-07T13:06:07;100964.09;;;22.81
67599;BMP280;62026;39.230;9.122;2023-05-07T13:08:40;100957.75;;;22.91
67599;BMP280;62026;39.230;9.122;2023-05-07T13:11:10;100949.16;;;22.70
67599;BMP280;62026;39.230;9.122;2023-05-07T13:13:38;100948.84;;;22.95
67599;BMP280;62026;39.230;9.122;2023-05-07T13:16:08;100945.84;;;22.97
67599;BMP280;62026;39.230;9.122;2023-05-07T13:18:34;100951.69;;;23.04
67599;BMP280;62026;39.230;9.122;2023-05-07T13:21:01;100951.88;;;23.07
67599;BMP280;62026;39.230;9.122;2023-05-07T13:23:28;100938.94;;;23.09
67599;BMP280;62026;39.230;9.122;2023-05-07T13:25:54;100942.50;;;23.05
67599;BMP280;62026;39.230;9.122;2023-05-07T13:28:22;100941.72;;;23.04
67599;BMP280;62026;39.230;9.122;2023-05-07T13:30:48;100933.31;;;23.06
67599;BMP280;62026;39.230;9.122;2023-05-07T13:33:14;100929.03;;;23.05
67599;BMP280;62026;39.230;9.122;2023-05-07T13:35:41;100928.72;;;23.06
67599;BMP280;62026;39.230;9.122;2023-05-07T13:38:07;100920.91;;;23.24
67599;BMP280;62026;39.230;9.122;2023-05-07T13:40:33;100925.16;;;23.30
67599;BMP280;62026;39.230;9.122;2023-05-07T13:43:00;100920.25;;;23.32
67599;BMP280;62026;39.230;9.122;2023-05-07T13:45:30;100918.09;;;23.34
67599;BMP280;62026;39.230;9.122;2023-05-07T13:47:57;100927.47;;;23.36
67599;BMP280;62026;39.230;9.122;2023-05-07T13:50:23;100928.00;;;23.20
67599;BMP280;62026;39.230;9.122;2023-05-07T13:52:50;100914.47;;;23.25
67599;BMP280;62026;39.230;9.122;2023-05-07T13:55:23;100901.56;;;23.40
67599;BMP280;62026;39.230;9.122;2023-05-07T13:57:59;100897.97;;;23.45
67599;BMP280;62026;39.230;9.122;2023-05-07T14:00:27;100899.06;;;23.44
67599;BMP280;62026;39.230;9.122;2023-05-07T14:02:55;100928.31;;;23.50
67599;BMP280;62026;39.230;9.122;2023-05-07T14:05:21;100901.56;;;23.40
67599;BMP280;62026;39.230;9.122;2023-05-07T14:07:57;100907.56;;;23.51
67599;BMP280;62026;39.230;9.122;2023-05-07T14:10:24;100898.34;;;23.38
67599;BMP280;62026;39.230;9.122;2023-05-07T14:12:50;100891.03;;;23.39
67599;BMP280;62026;39.230;9.122;2023-05-07T14:15:16;100894.94;;;23.33
67599;BMP280;62026;39.230;9.122;2023-05-07T14:17:43;100889.31;;;23.29
67599;BMP280;62026;39.230;9.122;2023-05-07T14:20:10;100895.34;;;23.40
67599;BMP280;62026;39.230;9.122;2023-05-07T14:22:37;100887.41;;;23.48
67599;BMP280;62026;39.230;9.122;2023-05-07T14:25:03;100886.19;;;23.54
67599;BMP280;62026;39.230;9.122;2023-05-07T14:27:29;100887.59;;;23.52
67599;BMP280;62026;39.230;9.122;2023-05-07T14:29:55;100884.50;;;23.45